createdAt,value
2022-10-26T00:01:04.115Z,2.60
2022-10-26T00:03:31.139Z,2.75
2022-10-26T00:06:04.309Z,2.70
2022-10-26T00:08:31.154Z,2.40
2022-10-26T00:10:58.470Z,2.15
2022-10-26T00:13:25.700Z,2.28
2022-10-26T00:15:52.704Z,2.58
2022-10-26T00:18:19.546Z,2.70
2022-10-26T00:20:46.724Z,2.40
2022-10-26T00:23:13.523Z,2.10
2022-10-26T00:25:40.337Z,2.13
2022-10-26T00:28:07.305Z,2.35
2022-10-26T00:30:34.118Z,2.17
2022-10-26T00:33:00.907Z,2.35
2022-10-26T00:35:44.701Z,2.53
2022-10-26T00:38:12.538Z,2.30
2022-10-26T00:40:39.376Z,2.03
2022-10-26T00:43:33.772Z,2.22
2022-10-26T00:46:03.273Z,2.20
2022-10-26T00:48:35.724Z,2.67
2022-10-26T00:51:10.739Z,2.65
2022-10-26T00:53:38.501Z,2.55
2022-10-26T00:56:05.696Z,2.75
2022-10-26T00:58:34.069Z,2.50
2022-10-26T01:01:00.883Z,2.65
2022-10-26T01:03:28.448Z,2.20
2022-10-26T01:05:57.776Z,2.40
2022-10-26T01:08:28.239Z,3.03
2022-10-26T01:10:58.104Z,2.55
2022-10-26T01:13:27.997Z,2.22
2022-10-26T01:16:08.921Z,2.10
2022-10-26T01:18:50.869Z,2.20
2022-10-26T01:21:29.492Z,2.30
2022-10-26T01:24:35.167Z,2.58
2022-10-26T01:27:04.717Z,2.22
2022-10-26T01:29:49.634Z,2.50
2022-10-26T01:32:31.060Z,2.40
2022-10-26T01:35:19.599Z,2.57
2022-10-26T01:37:54.884Z,2.35
2022-10-26T01:40:27.569Z,2.40
2022-10-26T01:42:57.561Z,2.22
2022-10-26T01:45:25.817Z,2.22
2022-10-26T01:47:54.448Z,2.50
2022-10-26T01:50:23.188Z,2.42
2022-10-26T01:52:50.913Z,2.10
2022-10-26T01:55:39.458Z,2.20
2022-10-26T01:58:13.374Z,2.20
2022-10-26T02:00:51.815Z,2.10
2022-10-26T02:03:32.753Z,2.53
2022-10-26T02:06:08.041Z,2.05
2022-10-26T02:08:47.081Z,2.28
2022-10-26T02:11:32.617Z,2.20
2022-10-26T02:14:12.210Z,1.90
2022-10-26T02:16:58.307Z,1.80
2022-10-26T02:19:40.363Z,1.73
2022-10-26T02:22:22.371Z,1.85
2022-10-26T02:24:53.015Z,2.33
2022-10-26T02:27:34.006Z,1.98
2022-10-26T02:30:02.940Z,2.13
2022-10-26T02:32:34.693Z,1.50
2022-10-26T02:35:03.810Z,1.90
2022-10-26T02:37:34.314Z,1.60
2022-10-26T02:40:04.983Z,1.80
2022-10-26T02:42:33.074Z,1.90
2022-10-26T02:45:05.145Z,1.73
2022-10-26T02:49:59.821Z,1.88
2022-10-26T02:52:29.863Z,1.77
2022-10-26T02:55:12.562Z,2.00
2022-10-26T02:57:42.450Z,1.70
2022-10-26T03:00:15.433Z,1.60
2022-10-26T03:02:47.643Z,1.60
2022-10-26T03:05:25.726Z,1.55
2022-10-26T03:07:52.733Z,1.80
2022-10-26T03:10:19.888Z,1.50
2022-10-26T03:12:47.062Z,1.40
2022-10-26T03:15:15.433Z,1.77
2022-10-26T03:17:42.670Z,2.05
2022-10-26T03:20:10.395Z,1.83
2022-10-26T03:22:37.234Z,1.63
2022-10-26T03:25:04.613Z,1.52
2022-10-26T03:27:31.570Z,1.55
2022-10-26T03:29:58.435Z,1.77
2022-10-26T03:32:25.464Z,1.40
2022-10-26T03:34:52.289Z,1.70
2022-10-26T03:37:19.127Z,1.65
2022-10-26T03:39:46.206Z,1.45
2022-10-26T03:42:13.047Z,1.60
2022-10-26T03:44:39.941Z,1.70
2022-10-26T03:47:06.810Z,2.00
2022-10-26T03:49:33.698Z,3.40
2022-10-26T03:52:00.676Z,3.70
2022-10-26T03:54:27.570Z,2.03
2022-10-26T03:56:55.316Z,1.83
2022-10-26T03:59:22.290Z,1.60
2022-10-26T04:01:52.700Z,1.90
2022-10-26T04:04:22.451Z,2.10
2022-10-26T04:06:49.318Z,3.40
2022-10-26T04:09:16.182Z,4.78
2022-10-26T04:11:43.020Z,3.13
2022-10-26T04:14:09.979Z,2.55
2022-10-26T04:16:36.857Z,2.92
2022-10-26T04:19:04.031Z,3.47
2022-10-26T04:21:33.007Z,3.38
2022-10-26T04:23:59.845Z,7.45
2022-10-26T04:26:27.622Z,7.75
2022-10-26T04:28:54.583Z,6.78
2022-10-26T04:31:21.623Z,3.60
2022-10-26T04:33:48.482Z,4.47
2022-10-26T04:36:15.334Z,2.88
2022-10-26T04:38:42.143Z,3.28
2022-10-26T04:41:09.051Z,2.95
2022-10-26T04:43:35.913Z,3.90
2022-10-26T04:46:02.715Z,2.35
2022-10-26T04:48:29.636Z,2.90
2022-10-26T04:50:59.928Z,2.60
2022-10-26T04:53:27.847Z,2.42
2022-10-26T04:55:58.805Z,2.33
2022-10-26T04:58:26.561Z,2.25
2022-10-26T05:00:54.196Z,2.42
2022-10-26T05:03:21.156Z,2.60
2022-10-26T05:05:48.065Z,2.35
2022-10-26T05:08:16.023Z,2.78
2022-10-26T05:10:43.540Z,3.42
2022-10-26T05:13:10.971Z,3.40
2022-10-26T05:15:37.769Z,2.97
2022-10-26T05:18:05.917Z,2.88
2022-10-26T05:20:35.909Z,10.98
2022-10-26T05:23:05.618Z,6.05
2022-10-26T05:25:35.623Z,5.57
2022-10-26T05:28:04.766Z,2.78
2022-10-26T05:30:32.283Z,2.25
2022-10-26T05:33:02.295Z,2.00
2022-10-26T05:35:29.515Z,1.95
2022-10-26T05:37:56.412Z,2.28
2022-10-26T05:40:23.457Z,2.08
2022-10-26T05:42:53.685Z,5.20
2022-10-26T05:45:20.601Z,3.95
2022-10-26T05:47:47.739Z,7.90
2022-10-26T05:50:14.916Z,3.22
2022-10-26T05:52:46.477Z,2.90
2022-10-26T05:55:18.165Z,3.05
2022-10-26T05:57:45.464Z,3.22
2022-10-26T06:00:23.000Z,4.13
2022-10-26T06:02:57.202Z,5.97
2022-10-26T06:05:28.209Z,6.63
2022-10-26T06:07:55.569Z,5.97
2022-10-26T06:10:22.790Z,5.45
2022-10-26T06:12:50.297Z,4.88
2022-10-26T06:15:21.958Z,4.25
2022-10-26T06:18:13.460Z,4.47
2022-10-26T06:20:54.493Z,4.00
2022-10-26T06:23:24.457Z,3.35
2022-10-26T06:26:22.525Z,3.95
2022-10-26T06:29:14.762Z,4.22
2022-10-26T06:31:42.594Z,3.53
2022-10-26T06:34:11.312Z,3.97
2022-10-26T06:36:41.067Z,3.00
2022-10-26T06:39:10.576Z,3.50
2022-10-26T06:41:38.257Z,4.03
2022-10-26T06:44:05.862Z,3.30
2022-10-26T06:46:41.548Z,3.50
2022-10-26T06:49:22.404Z,9.30
2022-10-26T06:51:51.999Z,10.25
2022-10-26T06:54:40.084Z,6.18
2022-10-26T06:57:11.418Z,3.40
2022-10-26T06:59:50.083Z,3.90
2022-10-26T07:02:17.522Z,4.47
2022-10-26T07:04:44.967Z,5.30
2022-10-26T07:07:24.024Z,4.90
2022-10-26T07:09:51.454Z,5.22
2022-10-26T07:12:18.607Z,4.47
2022-10-26T07:14:45.678Z,4.50
2022-10-26T07:17:12.821Z,3.90
2022-10-26T07:19:40.752Z,3.35
2022-10-26T07:22:07.863Z,3.15
2022-10-26T07:24:35.295Z,3.55
2022-10-26T07:27:02.177Z,3.50
2022-10-26T07:29:29.124Z,3.47
2022-10-26T07:31:56.183Z,4.50
2022-10-26T07:34:23.133Z,4.00
2022-10-26T07:36:51.743Z,3.83
2022-10-26T07:39:18.709Z,3.13
2022-10-26T07:41:45.714Z,3.22
2022-10-26T07:44:12.615Z,9.52
2022-10-26T07:46:39.448Z,14.25
2022-10-26T07:49:06.304Z,7.78
2022-10-26T07:51:33.631Z,5.80
2022-10-26T07:54:00.598Z,4.00
2022-10-26T07:56:27.679Z,3.58
2022-10-26T07:58:55.554Z,4.78
2022-10-26T08:01:25.286Z,3.80
2022-10-26T08:03:53.936Z,5.00
2022-10-26T08:06:24.637Z,7.20
2022-10-26T08:08:52.191Z,8.20
2022-10-26T08:11:19.745Z,4.10
2022-10-26T08:13:46.775Z,11.20
2022-10-26T08:16:13.930Z,9.60
2022-10-26T08:18:40.901Z,6.15
2022-10-26T08:21:13.722Z,5.18
2022-10-26T08:23:45.286Z,4.68
2022-10-26T08:26:12.155Z,5.03
2022-10-26T08:28:39.935Z,4.90
2022-10-26T08:31:07.866Z,3.80
2022-10-26T08:33:34.803Z,17.52
2022-10-26T08:36:04.555Z,5.45
2022-10-26T08:38:34.024Z,4.85
2022-10-26T08:41:07.898Z,5.03
2022-10-26T08:43:39.596Z,5.25
2022-10-26T08:46:47.288Z,4.20
2022-10-26T08:49:14.200Z,4.00
2022-10-26T08:51:42.699Z,3.67
2022-10-26T08:54:17.594Z,4.07
2022-10-26T08:56:50.701Z,4.03
2022-10-26T08:59:48.066Z,4.00
2022-10-26T09:02:17.521Z,3.97
2022-10-26T09:04:45.300Z,7.13
2022-10-26T09:07:30.204Z,6.57
2022-10-26T09:10:02.106Z,4.95
2022-10-26T09:12:54.704Z,5.03
2022-10-26T09:15:49.963Z,3.00
2022-10-26T09:19:02.893Z,3.78
2022-10-26T09:21:54.454Z,3.05
2022-10-26T09:24:37.345Z,3.30
2022-10-26T09:32:17.352Z,4.40
2022-10-26T09:34:50.702Z,2.73
2022-10-26T09:37:25.940Z,2.83
2022-10-26T09:39:59.411Z,3.78
2022-10-26T09:45:11.887Z,3.17
2022-10-26T10:50:02.938Z,2.50
2022-10-26T12:26:23.434Z,2.10
2022-10-26T12:29:10.138Z,2.10
2022-10-26T12:31:37.098Z,1.98
2022-10-26T12:34:05.401Z,2.47
2022-10-26T12:37:09.886Z,2.10
2022-10-26T12:39:40.821Z,2.13
2022-10-26T12:42:30.233Z,2.78
2022-10-26T12:44:57.184Z,2.10
2022-10-26T12:47:30.031Z,2.10
2022-10-26T12:50:05.954Z,2.40
2022-10-26T12:52:32.694Z,2.10
2022-10-26T13:52:49.569Z,2.00
2022-10-26T14:21:18.932Z,1.77
